Latest Weather Observations for Lismore Airport

IDN60801

Issued at 2:05 pm EST Monday 22 September 2014 (issued every 30 minutes, with the page automatically refreshed every 10 minutes)

About weather observations | Map of weather stations | Latest weather observations for NSW | Other Formats
Station Details ID: 058214 Name: LISMORE AIRPORT AWS Lat: -28.83 Lon: 153.26 Height: 9.21 m
Data from the previous 72 hours. | See also: Recent months for locations in New South Wales
Date/Time
EST
Temp
°C
App
Temp
°C
Dew
Point
Rel
Hum
%
Delta-T
°C
Wind Press
QNH
hPa
Press
MSL
hPa
Rain
since 9 am
mm
Dir
 
Spd
km/h
Gust
km/h
Spd
kts
Gust
kts
22/02:00pm 20.7 16.0 9.3 48 6.0 SE 24 32 13 17 1027.2 1027.2 0.0
22/01:30pm 21.3 17.3 10.5 50 5.9 ESE 22 32 12 17 1027.3 1027.3 0.0
22/01:00pm 22.3 17.6 10.8 48 6.3 SE 26 33 14 18 1027.5 1027.5 0.0
22/12:30pm 22.0 17.3 10.8 49 6.2 SE 26 35 14 19 1027.8 1027.8 0.0
22/12:00pm 22.4 18.2 11.2 49 6.2 SE 24 32 13 17 1028.1 1028.1 0.0
22/11:30am 21.6 17.8 11.0 51 5.8 SSE 22 32 12 17 1028.3 1028.3 0.0
22/11:00am 21.7 17.5 12.5 56 5.2 SE 26 33 14 18 1028.7 1028.7 0.0
22/10:30am 20.0 17.9 13.5 66 3.7 S 17 26 9 14 1029.2 1029.2 0.0
22/10:00am 19.1 16.8 13.1 68 3.4 S 17 26 9 14 1029.4 1029.4 0.0
22/09:30am 19.2 17.3 12.9 67 3.6 S 15 24 8 13 1029.3 1029.3 0.0
22/09:00am 18.0 15.8 14.3 79 2.1 S 19 26 10 14 1029.2 1029.2 2.8
22/08:30am 17.6 16.6 14.5 82 1.8 S 13 22 7 12 1029.3 1029.3 2.8
22/08:00am 15.4 13.6 12.0 80 1.8 S 13 17 7 9 1029.2 1029.2 2.8
22/07:30am 14.4 14.7 13.3 93 0.6 E 4 9 2 5 1029.2 1029.2 2.8
22/07:00am 13.4 14.5 13.4 100 0.0 CALM 0 0 0 0 1028.9 1028.9 2.8
22/06:30am 11.7 12.2 11.7 100 0.0 CALM 0 6 0 3 1028.4 1028.4 2.8
22/06:11am 11.0 11.3 10.8 99 0.1 CALM 0 0 0 0 1028.5 1028.5 2.6
22/06:00am 9.0 8.8 8.9 99 0.0 CALM 0 0 0 0 1028.2 1028.2 2.4
22/05:54am 9.4 9.3 9.3 99 0.0 CALM 0 0 0 0 1028.1 1028.1 2.4
22/05:52am 9.0 8.8 8.9 99 0.0 CALM 0 0 0 0 1028.1 1028.1 2.4
22/05:50am 9.0 8.8 8.9 99 0.0 CALM 0 0 0 0 1028.0 1028.0 2.4
22/05:36am 8.9 8.6 8.8 99 0.0 CALM 0 0 0 0 1028.0 1028.0 2.4
22/05:34am 9.2 9.0 9.1 99 0.0 CALM 0 0 0 0 1027.9 1027.9 2.4
22/05:30am 9.6 9.5 9.5 99 0.0 CALM 0 0 0 0 1027.8 1027.8 2.4
22/05:00am 9.9 9.5 9.8 99 0.0 NNW 2 7 1 4 1027.5 1027.5 2.4
22/04:59am 10.0 9.6 9.9 99 0.1 NW 2 7 1 4 1027.5 1027.5 2.4
22/04:55am 10.2 9.5 10.0 99 0.1 NNW 4 7 2 4 1027.4 1027.4 2.4
22/04:30am 11.0 11.3 10.8 99 0.1 CALM 0 0 0 0 1027.0 1027.0 2.4
22/04:00am 10.5 10.3 10.3 99 0.1 WSW 2 9 1 5 1027.1 1027.1 2.4
22/03:56am 10.5 9.5 10.3 99 0.1 W 6 9 3 5 1027.2 1027.2 2.4
22/03:39am 11.0 9.6 10.8 99 0.1 N 9 11 5 6 1027.3 1027.3 2.4
22/03:30am 11.2 9.8 11.0 99 0.1 N 9 11 5 6 1027.3 1027.3 2.4
22/03:00am 10.4 10.5 10.2 99 0.1 CALM 0 0 0 0 1027.1 1027.1 2.4
22/02:53am 10.3 10.4 10.1 99 0.1 CALM 0 4 0 2 1027.2 1027.2 2.4
22/02:50am 10.3 10.0 10.1 99 0.1 WNW 2 9 1 5 1027.2 1027.2 2.4
22/02:30am 10.9 8.3 10.7 99 0.1 NNW 15 17 8 9 1027.3 1027.3 2.4
22/02:24am 10.8 8.9 10.6 99 0.1 NNW 11 17 6 9 1027.3 1027.3 2.4
22/02:00am 9.8 9.8 9.7 99 0.0 CALM 0 0 0 0 1027.4 1027.4 2.4
22/01:30am 10.3 10.4 10.1 99 0.1 CALM 0 0 0 0 1027.6 1027.6 2.4
22/01:05am 10.8 11.0 10.6 99 0.1 CALM 0 0 0 0 1027.8 1027.8 2.4
22/01:00am 10.8 11.0 10.6 99 0.1 CALM 0 0 0 0 1027.9 1027.9 2.4
22/12:57am 10.6 10.8 10.4 99 0.1 CALM 0 0 0 0 1028.0 1028.0 2.4
22/12:50am 11.0 10.5 10.8 99 0.1 NNE 4 7 2 4 1028.1 1028.1 2.4
22/12:40am 10.9 10.0 10.7 99 0.1 NE 6 9 3 5 1028.3 1028.3 2.4
22/12:30am 10.1 9.7 9.9 99 0.1 E 2 7 1 4 1028.5 1028.5 2.4
22/12:00am 10.4 10.5 10.2 99 0.1 SW 0 0 0 0 1028.2 1028.2 2.4
 
Date/Time
EST
Temp
°C
App
Temp
°C
Dew
Point
Rel
Hum
%
Delta-T
°C
Wind Press
QNH
hPa
Press
MSL
hPa
Rain
since 9 am
mm
Dir
 
Spd
km/h
Gust
km/h
Spd
kts
Gust
kts
21/11:46pm 10.4 10.5 10.2 99 0.1 CALM 0 0 0 0 1028.0 1028.0 2.4
21/11:34pm 11.5 11.9 11.3 99 0.1 CALM 0 0 0 0 1028.2 1028.2 2.4
21/11:30pm 11.9 12.4 11.7 99 0.1 CALM 0 0 0 0 1028.2 1028.2 2.4
21/11:00pm 11.0 11.3 10.8 99 0.1 CALM 0 0 0 0 1028.4 1028.4 2.4
21/10:40pm 12.0 12.6 11.8 99 0.1 CALM 0 0 0 0 1028.5 1028.5 2.4
21/10:35pm 12.2 12.8 12.0 99 0.1 CALM 0 0 0 0 1028.5 1028.5 2.4
21/10:30pm 12.0 12.6 11.8 99 0.1 CALM 0 0 0 0 1028.6 1028.6 2.4
21/10:18pm 12.1 12.6 11.6 97 0.3 CALM 0 0 0 0 1028.5 1028.5 2.4
21/10:14pm 12.1 12.6 11.6 97 0.3 CALM 0 0 0 0 1028.5 1028.5 2.4
21/10:00pm 13.2 14.1 12.9 98 0.2 CALM 0 0 0 0 1028.6 1028.6 2.4
21/09:30pm 13.4 14.3 12.9 97 0.3 NNW 0 0 0 0 1028.7 1028.7 2.4
21/09:00pm 14.1 15.3 13.9 99 0.1 CALM 0 0 0 0 1028.6 1028.6 2.4
21/08:30pm 14.2 15.4 13.9 98 0.2 CALM 0 0 0 0 1028.5 1028.5 2.4
21/08:00pm 14.4 15.7 14.1 98 0.2 CALM 0 0 0 0 1028.4 1028.4 2.4
21/07:30pm 14.2 15.5 14.0 99 0.1 CALM 0 0 0 0 1028.1 1028.1 2.4
21/07:00pm 14.1 15.2 13.6 97 0.3 CALM 0 0 0 0 1027.5 1027.5 2.4
21/06:30pm 14.9 16.3 14.3 96 0.3 CALM 0 0 0 0 1027.2 1027.2 2.4
21/06:00pm 15.1 16.4 14.0 93 0.6 CALM 0 6 0 3 1026.9 1026.9 2.4
21/05:30pm 15.2 14.1 14.2 94 0.6 SSE 13 17 7 9 1026.6 1026.6 2.4
21/05:25pm 15.2 14.0 14.1 93 0.6 SSE 13 20 7 11 1026.6 1026.6 2.2
21/05:05pm 15.7 13.2 13.5 87 1.2 SE 19 37 10 20 1026.5 1026.5 1.4
21/05:00pm 16.9 15.4 13.0 78 2.2 SE 13 19 7 10 1026.3 1026.3 0.0
21/04:30pm 17.8 15.0 13.3 75 2.5 ESE 20 28 11 15 1026.2 1026.2 0.0
21/04:00pm 18.2 15.2 12.4 69 3.2 SSE 20 30 11 16 1025.9 1025.9 0.0
21/03:30pm 18.5 14.0 12.7 69 3.2 SSE 28 37 15 20 1025.8 1025.8 0.0
21/03:00pm 20.5 16.8 11.4 56 5.0 SE 22 33 12 18 1025.3 1025.3 0.0
21/02:30pm 19.5 14.2 11.3 59 4.5 SE 30 41 16 22 1025.1 1025.1 0.0
21/02:00pm 19.8 14.9 11.3 58 4.6 SE 28 39 15 21 1025.1 1025.1 0.0
21/01:46pm 21.1 16.3 11.7 55 5.2 SE 28 46 15 25 1025.1 1025.1 0.0
21/01:30pm 21.5 16.9 11.2 52 5.7 SE 26 35 14 19 1025.2 1025.2 0.0
21/01:00pm 20.4 16.4 10.5 53 5.3 SE 22 32 12 17 1025.6 1025.6 0.0
21/12:30pm 22.7 19.0 12.6 53 5.8 SE 24 37 13 20 1026.2 1026.2 0.0
21/12:00pm 20.6 16.9 10.1 51 5.6 SE 20 28 11 15 1026.2 1026.2 0.0
21/11:30am 21.0 18.1 12.2 57 4.9 SSE 19 32 10 17 1026.3 1026.3 0.0
21/11:00am 22.1 18.3 12.4 54 5.5 S 24 35 13 19 1026.8 1026.8 0.0
21/10:30am 20.4 15.9 11.3 56 5.0 SSE 26 33 14 18 1027.3 1027.3 0.0
21/10:00am 19.7 16.6 11.7 60 4.4 S 19 26 10 14 1027.6 1027.6 0.0
21/09:30am 19.2 15.8 10.7 58 4.6 S 19 26 10 14 1028.0 1028.0 0.0
21/09:00am 18.5 15.6 11.1 62 4.0 SSW 17 24 9 13 1027.9 1027.9 0.0
21/08:30am 16.8 14.8 10.2 65 3.5 S 11 17 6 9 1027.8 1027.8 0.0
21/08:00am 15.5 15.7 10.5 72 2.6 CALM 0 0 0 0 1027.7 1027.7 0.0
21/07:30am 13.0 11.4 10.2 83 1.4 N 9 11 5 6 1027.6 1027.6 0.0
21/07:00am 11.2 9.1 9.9 92 0.7 N 11 13 6 7 1027.3 1027.3 0.0
21/06:30am 9.4 9.2 8.9 97 0.2 CALM 0 6 0 3 1026.9 1026.9 0.0
21/06:00am 8.0 6.3 7.4 96 0.3 NNW 6 9 3 5 1026.7 1026.7 0.0
21/05:30am 8.4 6.6 7.8 96 0.3 N 7 9 4 5 1026.3 1026.3 0.0
21/05:00am 8.8 7.2 7.9 94 0.4 WNW 6 9 3 5 1025.9 1025.9 0.0
21/04:30am 9.1 6.3 8.6 97 0.2 NNW 13 17 7 9 1025.6 1025.6 0.0
21/04:00am 8.8 7.8 8.7 99 0.0 NNW 4 9 2 5 1025.2 1025.2 0.0
21/03:30am 8.3 7.9 8.2 99 0.0 CALM 0 0 0 0 1025.0 1025.0 0.0
21/03:00am 8.5 8.1 8.4 99 0.0 CALM 0 0 0 0 1024.9 1024.9 0.0
21/02:30am 9.0 8.8 8.9 99 0.0 CALM 0 0 0 0 1025.2 1025.2 0.0
21/02:00am 9.0 5.5 8.9 99 0.0 NNW 17 19 9 10 1025.5 1025.5 0.0
21/01:54am 8.7 5.2 8.6 99 0.0 NNW 17 19 9 10 1025.6 1025.6 0.0
21/01:39am 7.6 5.3 7.5 99 0.0 NNW 9 13 5 7 1025.5 1025.5 0.0
21/01:33am 7.0 5.9 6.9 99 0.0 N 2 13 1 7 1025.6 1025.6 0.0
21/01:30am 7.0 6.3 6.9 99 0.0 CALM 0 0 0 0 1025.6 1025.6 0.0
21/01:26am 7.0 6.3 6.9 99 0.0 CALM 0 0 0 0 1025.7 1025.7 0.0
21/01:01am 6.2 5.2 5.8 97 0.2 CALM 0 0 0 0 1025.8 1025.8 0.0
21/01:00am 6.5 5.6 6.2 98 0.1 CALM 0 0 0 0 1025.7 1025.7 0.0
21/12:43am 6.7 5.9 6.3 97 0.2 CALM 0 0 0 0 1025.7 1025.7 0.0
21/12:30am 8.1 7.6 8.0 99 0.0 CALM 0 0 0 0 1025.8 1025.8 0.0
21/12:23am 8.0 7.5 7.9 99 0.0 CALM 0 0 0 0 1025.9 1025.9 0.0
21/12:00am 7.1 6.3 6.4 95 0.3 CALM 0 0 0 0 1026.0 1026.0 0.0
 
Date/Time
EST
Temp
°C
App
Temp
°C
Dew
Point
Rel
Hum
%
Delta-T
°C
Wind Press
QNH
hPa
Press
MSL
hPa
Rain
since 9 am
mm
Dir
 
Spd
km/h
Gust
km/h
Spd
kts
Gust
kts
20/11:30pm 7.5 6.6 6.0 90 0.7 CALM 0 0 0 0 1026.0 1026.0 0.0
20/11:00pm 6.9 5.8 5.1 88 0.8 CALM 0 0 0 0 1026.0 1026.0 0.0
20/10:30pm 9.2 8.8 8.4 95 0.4 CALM 0 0 0 0 1025.9 1025.9 0.0
20/10:00pm 8.6 8.0 7.2 91 0.7 CALM 0 0 0 0 1025.8 1025.8 0.0
20/09:30pm 9.7 9.3 8.3 91 0.7 CALM 0 0 0 0 1025.6 1025.6 0.0
20/09:00pm 10.3 10.1 8.9 91 0.7 CALM 0 0 0 0 1025.3 1025.3 0.0
20/08:30pm 10.8 10.5 8.7 87 1.0 CALM 0 0 0 0 1024.9 1024.9 0.0
20/08:00pm 11.8 11.5 8.8 82 1.5 CALM 0 0 0 0 1024.5 1024.5 0.0
20/07:30pm 12.3 12.0 8.8 79 1.7 CALM 0 0 0 0 1024.1 1024.1 0.0
20/07:00pm 13.0 12.7 8.5 74 2.2 CALM 0 0 0 0 1023.7 1023.7 0.0
20/06:30pm 14.9 14.8 9.5 70 2.8 CALM 0 0 0 0 1023.3 1023.3 0.0
20/06:00pm 16.2 14.5 9.8 66 3.3 SSE 9 11 5 6 1022.6 1022.6 0.0
20/05:30pm 17.5 14.7 9.9 61 4.0 SE 15 20 8 11 1022.2 1022.2 0.0
20/05:00pm 18.6 15.0 9.9 57 4.6 SE 19 24 10 13 1021.6 1021.6 0.0
20/04:30pm 19.4 15.4 9.0 51 5.5 SE 20 30 11 16 1020.9 1020.9 0.0
20/04:00pm 20.1 15.9 8.4 47 6.1 SSE 20 30 11 16 1020.5 1020.5 0.0
20/03:30pm 20.5 16.2 7.2 42 6.8 SE 19 24 10 13 1020.4 1020.4 0.0
20/03:00pm 21.1 16.7 7.3 41 7.1 SE 20 30 11 16 1020.0 1020.0 0.0
20/02:30pm 21.4 17.0 7.3 40 7.3 ESE 20 30 11 16 1020.1 1020.1 0.0
20/02:00pm 21.5 16.3 7.3 40 7.3 SSE 24 28 13 15 1019.9 1019.9 0.0
20/01:30pm 20.8 16.2 8.1 44 6.6 SE 22 30 12 16 1020.1 1020.1 0.0
20/01:00pm 21.4 17.3 8.0 42 7.0 SE 19 24 10 13 1020.4 1020.4 0.0
20/12:30pm 21.5 17.6 7.3 40 7.3 SE 17 20 9 11 1020.7 1020.7 0.0
20/12:00pm 21.4 18.9 8.0 42 7.0 S 11 20 6 11 1021.1 1021.1 0.0
20/11:30am 20.8 17.8 9.1 47 6.2 SSE 15 22 8 12 1021.5 1021.5 0.0
20/11:00am 20.7 17.9 8.4 45 6.4 SE 13 19 7 10 1022.0 1022.0 0.0
20/10:30am 20.7 18.8 9.0 47 6.2 SSW 9 17 5 9 1022.2 1022.2 0.0
20/10:00am 18.7 15.6 8.7 52 5.2 SE 15 19 8 10 1022.6 1022.6 0.0
20/09:30am 20.2 19.0 11.7 58 4.7 ESE 9 15 5 8 1022.8 1022.8 0.0
20/09:00am 19.1 17.8 11.2 60 4.3 S 9 15 5 8 1023.0 1023.0 0.0
20/08:30am 17.5 16.5 11.1 66 3.5 SSE 7 11 4 6 1023.0 1023.0 0.0
20/08:00am 17.2 17.7 12.7 75 2.5 SSE 2 7 1 4 1022.8 1022.8 0.0
20/07:30am 15.6 16.2 11.8 78 2.1 CALM 0 0 0 0 1022.5 1022.5 0.0
20/07:00am 14.8 15.0 11.9 83 1.6 W 2 7 1 4 1022.3 1022.3 0.0
20/06:30am 13.5 14.3 12.6 94 0.5 CALM 0 0 0 0 1021.9 1021.9 0.0
20/06:00am 12.9 13.5 12.0 94 0.5 CALM 0 0 0 0 1021.4 1021.4 0.0
20/05:30am 12.5 13.1 11.9 96 0.3 CALM 0 0 0 0 1020.9 1020.9 0.0
20/05:00am 12.3 11.7 11.7 96 0.3 N 6 7 3 4 1020.5 1020.5 0.0
20/04:30am 12.2 11.4 11.6 96 0.3 N 7 11 4 6 1020.2 1020.2 0.0
20/04:00am 12.2 12.7 11.7 97 0.3 CALM 0 0 0 0 1020.0 1020.0 0.0
20/03:30am 11.9 12.3 11.4 97 0.3 CALM 0 0 0 0 1019.8 1019.8 0.0
20/03:00am 11.6 12.0 11.1 97 0.3 CALM 0 0 0 0 1019.6 1019.6 0.0
20/02:30am 12.2 11.4 11.7 97 0.3 S 7 9 4 5 1019.7 1019.7 0.0
20/02:00am 11.8 10.1 11.3 97 0.3 SW 11 13 6 7 1019.8 1019.8 0.0
20/01:30am 10.4 8.3 9.6 95 0.4 SSW 11 11 6 6 1019.7 1019.7 0.0
20/01:00am 10.9 9.6 9.8 93 0.6 SSE 7 9 4 5 1019.6 1019.6 0.0
20/12:30am 11.6 11.9 10.8 95 0.4 CALM 0 0 0 0 1019.5 1019.5 0.0
20/12:00am 11.2 10.8 9.8 91 0.7 NNW 2 7 1 4 1019.5 1019.5 0.0
 
Date/Time
EST
Temp
°C
App
Temp
°C
Dew
Point
Rel
Hum
%
Delta-T
°C
Wind Press
QNH
hPa
Press
MSL
hPa
Rain
since 9 am
mm
Dir
 
Spd
km/h
Gust
km/h
Spd
kts
Gust
kts
19/11:30pm 12.7 11.8 11.4 92 0.7 NNE 7 9 4 5 1019.0 1019.0 0.0
19/11:00pm 11.5 9.4 9.9 90 0.8 N 11 11 6 6 1019.1 1019.1 0.0
19/10:30pm 12.1 11.3 9.8 86 1.2 N 4 11 2 6 1019.2 1019.2 0.0
19/10:00pm 12.9 12.8 9.4 79 1.8 CALM 0 0 0 0 1019.5 1019.5 0.0
19/09:30pm 14.7 14.8 10.3 75 2.3 CALM 0 0 0 0 1019.6 1019.6 0.0
19/09:00pm 16.3 14.9 11.0 71 2.8 N 9 11 5 6 1019.5 1019.5 0.0
19/08:30pm 16.3 14.9 10.8 70 2.9 NNE 9 13 5 7 1019.3 1019.3 0.0
19/08:00pm 16.5 14.2 10.6 68 3.1 N 13 15 7 8 1019.2 1019.2 0.0
19/07:30pm 17.8 15.6 10.7 63 3.8 NE 13 20 7 11 1018.9 1018.9 0.0
19/07:00pm 18.8 15.8 10.6 59 4.4 ENE 17 20 9 11 1018.5 1018.5 0.0
19/06:30pm 19.0 15.9 10.3 57 4.7 ENE 17 24 9 13 1018.0 1018.0 0.0
19/06:00pm 19.2 16.9 10.5 57 4.7 E 13 20 7 11 1017.6 1017.6 0.0
19/05:30pm 19.6 15.5 10.0 54 5.1 ENE 22 32 12 17 1017.2 1017.2 0.0
19/05:00pm 20.4 16.7 10.2 52 5.5 NE 20 28 11 15 1016.9 1016.9 0.0
19/04:30pm 21.0 17.5 10.8 52 5.6 ENE 20 28 11 15 1016.7 1016.7 0.0
19/04:00pm 21.4 16.8 11.1 52 5.7 ENE 26 35 14 19 1016.4 1016.4 0.0
19/03:30pm 21.8 17.7 11.5 52 5.7 E 24 35 13 19 1016.3 1016.3 0.0
19/03:00pm 21.5 18.0 10.9 51 5.8 ENE 20 30 11 16 1016.4 1016.4 0.0
19/02:30pm 22.8 19.8 11.8 50 6.2 E 19 26 10 14 1016.6 1016.6 0.0

Other Formats:

Comma delimited format used in spreadsheet applications
http://www.bom.gov.au/fwo/IDN60801/IDN60801.94572.axf

JavaScript Object Notation format (JSON) in row-major order
http://www.bom.gov.au/fwo/IDN60801/IDN60801.94572.json